Station: Cooma Airport

  Atmospheric Gas Attenuation - ITU Rec 676-11   --------------- db/100km ---------------
Date Time Temp RH % AH g/m3 Dew Point Wind Direction Speed kph Gust kph Barometer mB Rainfall Since 9am 24GHz 47GHz 76GHz 122GHz 134GHz 241GHz
23 08:10 0 99 4.8 -0.1 9 11 1028.4 0 12.0 24.1 31.0 80.6 62.5 210.3
23 08:00 -0.8 99 4.54 -0.9 9 11 1028.3 0 11.4 23.8 30.2 78.5 59.5 199.8
23 07:50 -1.6 99 4.3 -1.7 9 9 1028.4 0 11.0 23.7 29.5 76.7 56.8 190.2
23 07:40 -2.1 99 4.15 -2.2 9 11 1028.4 0 10.6 23.5 29.1 75.5 55.1 184.1
23 07:30 -3.4 99 3.79 -3.5 9 9 1028.3 0 9.9 23.3 28.1 72.7 51.0 169.6
23 07:20 -4 99 3.63 -4.1 9 11 1028.3 0 9.6 23.2 27.6 71.5 49.2 163.1
23 07:10 -4.7 98 3.42 -5 9 11 1028.1 0 9.2 23.0 27.0 69.8 46.7 154.3
23 07:00 -5 95 3.24 -5.7 9 9 1028.1 0 8.8 22.8 26.3 68.0 44.4 146.1
23 06:50 -4.2 99 3.58 -4.3 7 9 1028 0 9.5 23.1 27.5 71.1 48.6 161.0
23 06:40 -4.1 99 3.6 -4.2 9 11 1027.9 0 9.5 23.1 27.5 71.2 48.8 161.8
23 06:30 -4.4 99 3.53 -4.5 7 9 1027.8 0 9.4 23.1 27.3 70.7 48.0 159.0
23 06:20 -4.3 99 3.55 -4.4 7 9 1027.7 0 9.4 23.1 27.4 70.8 48.2 159.7
23 06:10 -4.7 97 3.38 -5.1 9 9 1027.7 0 9.1 22.9 26.8 69.3 46.2 152.3
23 06:00 -4.8 96 3.32 -5.3 7 9 1027.3 0 8.9 22.8 26.6 68.7 45.4 149.5
23 05:50 -4.5 99 3.5 -4.6 7 9 1027.5 0 9.3 23.0 27.2 70.4 47.7 157.7
23 05:40 -4.8 96 3.32 -5.3 7 7 1027.5 0 8.9 22.8 26.6 68.7 45.4 149.5
23 05:30 -4.7 97 3.38 -5.1 7 9 1027.5 0 9.1 22.9 26.8 69.3 46.1 152.3
23 05:20 -4.7 97 3.38 -5.1 9 9 1027.3 0 9.1 22.9 26.8 69.2 46.1 152.2
23 05:10 -4.6 98 3.44 -4.9 9 9 1027.4 0 9.2 23.0 27.0 69.8 46.9 154.9
23 05:00 -4.8 98 3.39 -5.1 7 9 1027.4 0 9.1 22.9 26.9 69.4 46.3 152.9
23 04:50 -4.9 96 3.3 -5.4 6 7 1027.3 0 8.9 22.8 26.5 68.5 45.2 148.7
23 04:40 -4.8 95 3.29 -5.5 7 7 1027.3 0 8.9 22.8 26.4 68.3 45.0 148.1
23 04:30 -4.9 93 3.2 -5.9 4 6 1027.3 0 8.7 22.6 26.1 67.4 43.8 143.9
23 04:20 -4.7 93 3.24 -5.7 6 7 1027.3 0 8.8 22.6 26.2 67.7 44.2 145.5
23 04:10 -4.5 92 3.25 -5.6 6 6 1027.2 0 8.8 22.6 26.2 67.6 44.2 145.6
23 04:00 -2.7 99 3.98 -2.8 9 9 1027.2 0 10.3 23.4 28.6 74.1 53.1 177.0
23 03:50 -3.1 99 3.87 -3.2 9 9 1027.1 0 10.1 23.3 28.2 73.2 51.9 172.6
23 03:40 -3.5 99 3.76 -3.6 6 6 1027.1 0 9.8 23.2 27.9 72.4 50.6 168.1
23 03:30 -5 95 3.24 -5.7 6 7 1027.1 0 8.8 22.7 26.3 67.9 44.4 146.0
23 03:20 -5.1 94 3.18 -5.9 7 7 1027.1 0 8.6 22.6 26.1 67.4 43.6 143.3
23 03:10 -4.8 97 3.36 -5.2 7 7 1027.1 0 9.0 22.9 26.7 69.1 45.9 151.4
23 03:00 -4.9 95 3.26 -5.6 0 0 1027.1 0 8.8 22.7 26.3 68.1 44.6 146.8
23 02:50 -4.6 95 3.34 -5.3 0 0 1027.2 0 9.0 22.8 26.6 68.7 45.5 150.1
23 02:40 -4.7 94 3.28 -5.5 0 0 1027.3 0 8.8 22.7 26.4 68.1 44.8 147.4
23 02:30 -4.5 95 3.36 -5.2 0 0 1027.3 0 9.0 22.8 26.6 68.8 45.7 150.9
23 02:20 -4.3 97 3.48 -4.7 0 0 1027.3 0 9.3 22.9 27.1 70.0 47.3 156.3
23 02:10 -4.3 97 3.48 -4.7 0 0 1027.2 0 9.3 22.9 27.0 70.0 47.3 156.3
23 02:00 -4.2 95 3.43 -4.9 0 0 1027.1 0 9.2 22.8 26.8 69.3 46.5 153.6
23 01:50 -3.9 98 3.62 -4.2 0 0 1027.4 0 9.6 23.1 27.5 71.2 48.9 162.2
23 01:40 -4.1 96 3.49 -4.6 0 0 1027.5 0 9.3 22.9 27.0 69.9 47.3 156.4
23 01:30 -4 95 3.48 -4.7 6 6 1027.5 0 9.3 22.9 27.0 69.7 47.1 155.7
23 01:20 -4.1 93 3.38 -5.1 6 6 1027.5 0 9.0 22.7 26.6 68.7 45.8 151.1
23 01:10 -4 93 3.41 -5 6 6 1027.5 0 9.1 22.8 26.7 69.0 46.1 152.3
23 01:00 -3.6 94 3.54 -4.4 7 7 1027.7 0 9.4 22.9 27.1 70.1 47.7 157.8
23 00:50 -3.8 94 3.49 -4.6 0 0 1027.7 0 9.3 22.8 26.9 69.7 47.1 155.8
23 00:40 -3.3 95 3.66 -4 0 0 1027.7 0 9.6 23.0 27.5 71.1 49.1 163.0
23 00:30 -3.2 95 3.69 -3.9 0 0 1027.7 0 9.7 23.0 27.6 71.3 49.5 164.2
23 00:20 -2.7 99 3.98 -2.8 7 9 1027.8 0 10.3 23.4 28.6 74.1 53.1 177.1
23 00:10 -3.5 94 3.57 -4.3 9 9 1027.7 0 9.4 22.9 27.2 70.3 48.0 159.1
23 00:00 -3 96 3.78 -3.5 0 0 1027.8 0 9.9 23.1 27.9 72.2 50.6 168.1
22 23:50 -3.2 94 3.65 -4 0 0 1027.9 0 9.6 23.0 27.4 70.9 48.9 162.3
22 23:40 -2.6 99 4.01 -2.7 0 0 1027.8 0 10.4 23.4 28.7 74.3 53.5 178.4
22 23:30 -2.8 99 3.95 -2.9 0 0 1027.9 0 10.2 23.4 28.5 73.9 52.8 175.9
22 23:20 -3.3 94 3.62 -4.1 0 0 1027.9 0 9.5 22.9 27.3 70.7 48.6 161.1
22 23:10 -2.6 97 3.93 -3 0 0 1027.8 0 10.2 23.3 28.3 73.5 52.4 174.5
22 23:00 -2.7 94 3.78 -3.5 0 0 1027.5 0 9.9 23.0 27.8 71.9 50.4 167.4
22 22:50 -2.3 95 3.93 -3 0 0 1027.8 0 10.2 23.2 28.2 73.2 52.2 173.8
22 22:40 -2.6 94 3.8 -3.4 0 0 1027.8 0 9.9 23.1 27.8 72.0 50.6 168.2
22 22:30 -2.3 97 4.01 -2.7 0 0 1027.8 0 10.4 23.3 28.6 74.1 53.3 177.7
22 22:20 -2.1 96 4.02 -2.6 0 0 1027.8 0 10.4 23.3 28.5 74.0 53.3 177.7
22 22:10 -2.2 91 3.79 -3.5 0 0 1027.7 0 9.9 22.9 27.6 71.5 50.2 166.9
22 22:00 -1.5 96 4.2 -2.1 0 0 1027.7 0 10.7 23.4 29.1 75.4 55.3 185.0
22 21:50 -1.5 97 4.24 -1.9 0 0 1027.7 0 10.8 23.5 29.2 75.8 55.9 186.9
22 21:40 -1.8 91 3.9 -3.1 4 6 1027.7 0 10.1 23.0 27.9 72.4 51.4 171.3
22 21:30 -1 91 4.12 -2.3 6 7 1027.5 0 10.5 23.2 28.5 74.0 53.9 179.9
22 21:20 -0.3 95 4.51 -1 0 0 1027.4 0 11.4 23.6 29.9 77.6 58.6 196.9
22 21:10 -0.5 91 4.27 -1.8 0 2 1027.3 0 10.9 23.3 29.0 75.2 55.5 185.9
22 21:00 -0.2 84 4.02 -2.6 4 6 1027.4 0 10.3 22.8 27.9 72.2 52.0 173.4
22 20:50 1.4 92 4.91 0.2 0 0 1027.3 0 12.2 23.8 30.9 80.3 62.8 211.6
22 20:40 0.8 84 4.31 -1.6 0 0 1027.3 0 10.9 23.0 28.7 74.4 55.1 184.7
22 20:30 2.3 88 5 0.5 6 6 1027.2 0 12.3 23.7 30.9 80.4 63.3 213.5
22 20:20 2.2 84 4.74 -0.2 6 7 1027.1 0 11.8 23.3 29.9 77.6 59.8 201.5
22 20:10 2.7 81 4.72 -0.2 6 7 1027 0 11.7 23.2 29.6 76.9 59.2 199.2
22 20:00 3.3 81 4.92 0.4 9 11 1027 0 12.1 23.3 30.2 78.5 61.4 207.0
22 19:50 3.5 79 4.86 0.2 7 9 1026.8 0 12.0 23.2 29.9 77.6 60.4 203.7
22 19:40 4.8 76 5.1 0.9 4 6 1026.5 0 12.5 23.2 30.3 78.8 62.5 211.3
22 19:30 5.4 74 5.17 1.1 4 6 1026.5 0 12.6 23.2 30.4 79.0 63.0 212.9
22 19:20 6 74 5.37 1.7 11 15 1026.4 0 13.0 23.3 30.9 80.5 65.1 220.4
22 19:10 6.2 74 5.45 1.9 15 20 1026.2 0 13.2 23.4 31.2 81.1 65.9 223.5
22 19:00 6.3 72 5.33 1.6 17 20 1026.2 0 12.9 23.2 30.7 79.7 64.3 217.7
22 18:50 6.3 71 5.26 1.4 17 19 1026 0 12.8 23.1 30.4 79.0 63.4 214.5
22 18:40 6.4 71 5.29 1.5 15 20 1025.9 0 12.8 23.1 30.4 79.2 63.7 215.6
22 18:30 6.3 71 5.26 1.4 17 20 1025.8 0 12.8 23.1 30.4 79.0 63.4 214.5
22 18:20 6.7 70 5.32 1.6 15 17 1025.6 0 12.9 23.0 30.4 79.2 63.8 216.1
22 18:10 6.5 71 5.33 1.6 17 22 1025.5 0 12.9 23.1 30.5 79.5 64.1 217.0
22 18:00 6.6 69 5.21 1.3 15 19 1025.5 0 12.6 22.9 30.0 78.1 62.5 211.3
22 17:50 6.6 69 5.21 1.3 15 17 1025.4 0 12.6 22.9 30.0 78.1 62.4 211.3
22 17:40 6.6 68 5.14 1.1 15 17 1025.3 0 12.5 22.8 29.8 77.4 61.5 208.1
22 17:30 6.9 68 5.24 1.4 13 17 1025.2 0 12.7 22.9 30.0 78.1 62.6 211.8
22 17:20 7 66 5.12 1.1 13 15 1025.2 0 12.4 22.6 29.5 76.8 61.0 206.2
22 17:10 7.6 63 5.08 1 7 9 1025.1 0 12.3 22.4 29.2 75.8 60.0 202.9
22 17:00 8.4 60 5.09 1.1 11 15 1024.9 0 12.3 22.2 28.9 75.1 59.5 201.3
22 16:50 9.1 58 5.15 1.3 11 15 1025.1 0 12.4 22.2 28.9 75.1 59.7 202.1
22 16:40 9.6 57 5.22 1.5 13 20 1025 0 12.6 22.2 29.0 75.3 60.2 203.9
22 16:30 10.1 55 5.2 1.5 20 24 1024.9 0 12.5 22.0 28.7 74.6 59.6 201.8
22 16:20 10.5 54 5.24 1.6 17 20 1024.7 0 12.6 22.0 28.7 74.6 59.8 202.4
22 16:10 10.7 54 5.31 1.8 20 26 1024.5 0 12.7 22.0 28.9 75.1 60.5 204.9
22 16:00 11.4 51 5.24 1.6 15 20 1024.4 0 12.5 21.7 28.4 73.8 59.1 200.2
22 15:50 11.5 49 5.06 1.2 20 24 1024.3 0 12.1 21.4 27.7 71.9 56.8 192.3
22 15:40 11.7 49 5.13 1.4 15 17 1024.1 0 12.3 21.5 27.9 72.4 57.5 194.7

Last Refresh: 23-Jul-2024 07:49:12

Bureau of Meteorology